sensor_id;sensor_type;location;lat;lon;timestamp;temperature;humidity
7684;DHT22;3884;48.616;12.872;2023-09-19T00:00:00;16.20;99.90
7684;DHT22;3884;48.616;12.872;2023-09-19T00:02:30;16.10;99.90
7684;DHT22;3884;48.616;12.872;2023-09-19T00:04:56;15.90;99.90
7684;DHT22;3884;48.616;12.872;2023-09-19T00:07:23;15.90;99.90
7684;DHT22;3884;48.616;12.872;2023-09-19T00:09:50;16.00;99.90
7684;DHT22;3884;48.616;12.872;2023-09-19T00:12:17;15.70;99.90
7684;DHT22;3884;48.616;12.872;2023-09-19T00:14:45;15.70;99.90
7684;DHT22;3884;48.616;12.872;2023-09-19T00:17:13;15.70;99.90
7684;DHT22;3884;48.616;12.872;2023-09-19T00:19:41;15.60;99.90
7684;DHT22;3884;48.616;12.872;2023-09-19T00:22:09;15.70;99.90
7684;DHT22;3884;48.616;12.872;2023-09-19T00:24:37;15.80;99.90
7684;DHT22;3884;48.616;12.872;2023-09-19T00:27:04;15.80;99.90
7684;DHT22;3884;48.616;12.872;2023-09-19T00:29:31;15.80;99.90
7684;DHT22;3884;48.616;12.872;2023-09-19T00:31:59;15.80;99.90
7684;DHT22;3884;48.616;12.872;2023-09-19T00:34:29;15.90;99.90
7684;DHT22;3884;48.616;12.872;2023-09-19T00:36:59;15.90;99.90
7684;DHT22;3884;48.616;12.872;2023-09-19T00:39:26;15.90;99.90
7684;DHT22;3884;48.616;12.872;2023-09-19T00:41:53;16.00;99.90
7684;DHT22;3884;48.616;12.872;2023-09-19T00:44:20;15.90;99.90
7684;DHT22;3884;48.616;12.872;2023-09-19T00:46:50;15.80;99.90
7684;DHT22;3884;48.616;12.872;2023-09-19T00:49:18;15.70;99.90
7684;DHT22;3884;48.616;12.872;2023-09-19T00:51:48;15.90;99.90
7684;DHT22;3884;48.616;12.872;2023-09-19T00:54:16;15.80;99.90
7684;DHT22;3884;48.616;12.872;2023-09-19T00:56:45;15.60;99.90
7684;DHT22;3884;48.616;12.872;2023-09-19T00:59:14;15.50;99.90
7684;DHT22;3884;48.616;12.872;2023-09-19T01:01:41;15.50;99.90
7684;DHT22;3884;48.616;12.872;2023-09-19T01:04:08;15.50;99.90
7684;DHT22;3884;48.616;12.872;2023-09-19T01:06:36;15.50;99.90
7684;DHT22;3884;48.616;12.872;2023-09-19T01:09:05;15.50;99.90
7684;DHT22;3884;48.616;12.872;2023-09-19T01:11:37;15.60;99.90
7684;DHT22;3884;48.616;12.872;2023-09-19T01:14:15;15.60;99.90
7684;DHT22;3884;48.616;12.872;2023-09-19T01:16:50;15.60;99.90
7684;DHT22;3884;48.616;12.872;2023-09-19T01:22:37;15.70;99.90
7684;DHT22;3884;48.616;12.872;2023-09-19T01:25:33;15.90;99.90
7684;DHT22;3884;48.616;12.872;2023-09-19T01:28:14;15.70;99.90
7684;DHT22;3884;48.616;12.872;2023-09-19T01:30:51;15.70;99.90
7684;DHT22;3884;48.616;12.872;2023-09-19T01:33:20;15.70;99.90
7684;DHT22;3884;48.616;12.872;2023-09-19T01:35:48;15.80;99.90
7684;DHT22;3884;48.616;12.872;2023-09-19T01:38:16;15.80;99.90
7684;DHT22;3884;48.616;12.872;2023-09-19T01:43:37;15.60;99.90
7684;DHT22;3884;48.616;12.872;2023-09-19T01:46:14;15.60;99.90
7684;DHT22;3884;48.616;12.872;2023-09-19T01:48:46;15.60;99.90
7684;DHT22;3884;48.616;12.872;2023-09-19T01:51:20;15.70;99.90
7684;DHT22;3884;48.616;12.872;2023-09-19T01:53:55;15.70;99.90
7684;DHT22;3884;48.616;12.872;2023-09-19T01:56:32;15.70;99.90
7684;DHT22;3884;48.616;12.872;2023-09-19T01:59:06;15.90;99.90
7684;DHT22;3884;48.616;12.872;2023-09-19T02:01:37;15.70;99.90
7684;DHT22;3884;48.616;12.872;2023-09-19T02:04:04;15.70;99.90
7684;DHT22;3884;48.616;12.872;2023-09-19T02:06:32;15.80;99.90
7684;DHT22;3884;48.616;12.872;2023-09-19T02:08:59;15.90;99.90
7684;DHT22;3884;48.616;12.872;2023-09-19T02:11:26;15.70;99.90
7684;DHT22;3884;48.616;12.872;2023-09-19T02:13:53;15.70;99.90
7684;DHT22;3884;48.616;12.872;2023-09-19T02:16:21;15.80;99.90
7684;DHT22;3884;48.616;12.872;2023-09-19T02:18:49;15.80;99.90
7684;DHT22;3884;48.616;12.872;2023-09-19T02:21:16;15.80;99.90
7684;DHT22;3884;48.616;12.872;2023-09-19T02:23:43;15.80;99.90
7684;DHT22;3884;48.616;12.872;2023-09-19T02:26:12;15.80;99.90
7684;DHT22;3884;48.616;12.872;2023-09-19T02:28:40;15.80;99.90
7684;DHT22;3884;48.616;12.872;2023-09-19T02:31:08;15.80;99.90
7684;DHT22;3884;48.616;12.872;2023-09-19T02:33:36;15.80;99.90
7684;DHT22;3884;48.616;12.872;2023-09-19T02:36:05;15.80;99.90
7684;DHT22;3884;48.616;12.872;2023-09-19T02:38:33;15.80;99.90
7684;DHT22;3884;48.616;12.872;2023-09-19T02:41:00;15.90;99.90
7684;DHT22;3884;48.616;12.872;2023-09-19T02:43:27;15.90;99.90
7684;DHT22;3884;48.616;12.872;2023-09-19T02:45:55;15.90;99.90
7684;DHT22;3884;48.616;12.872;2023-09-19T02:48:22;15.80;99.90
7684;DHT22;3884;48.616;12.872;2023-09-19T02:50:51;15.90;99.90
7684;DHT22;3884;48.616;12.872;2023-09-19T02:53:20;15.90;99.90
7684;DHT22;3884;48.616;12.872;2023-09-19T02:55:47;16.00;99.90
7684;DHT22;3884;48.616;12.872;2023-09-19T02:58:15;15.90;99.90
7684;DHT22;3884;48.616;12.872;2023-09-19T03:00:44;15.90;99.90
7684;DHT22;3884;48.616;12.872;2023-09-19T03:03:12;15.80;99.90
7684;DHT22;3884;48.616;12.872;2023-09-19T03:05:41;15.90;99.90
7684;DHT22;3884;48.616;12.872;2023-09-19T03:08:13;15.90;99.90
7684;DHT22;3884;48.616;12.872;2023-09-19T03:10:46;15.90;99.90
7684;DHT22;3884;48.616;12.872;2023-09-19T03:13:13;15.90;99.90
7684;DHT22;3884;48.616;12.872;2023-09-19T03:15:41;15.90;99.90
7684;DHT22;3884;48.616;12.872;2023-09-19T03:18:10;16.00;99.90
7684;DHT22;3884;48.616;12.872;2023-09-19T03:20:39;15.90;99.90
7684;DHT22;3884;48.616;12.872;2023-09-19T03:23:06;16.00;99.90
7684;DHT22;3884;48.616;12.872;2023-09-19T03:25:35;16.00;99.90
7684;DHT22;3884;48.616;12.872;2023-09-19T03:28:04;16.00;99.90
7684;DHT22;3884;48.616;12.872;2023-09-19T03:30:32;16.00;99.90
7684;DHT22;3884;48.616;12.872;2023-09-19T03:33:02;16.00;99.90
7684;DHT22;3884;48.616;12.872;2023-09-19T03:35:30;15.90;99.90
7684;DHT22;3884;48.616;12.872;2023-09-19T03:37:57;15.90;99.90
7684;DHT22;3884;48.616;12.872;2023-09-19T03:40:25;15.90;99.90
7684;DHT22;3884;48.616;12.872;2023-09-19T03:42:52;15.90;99.90
7684;DHT22;3884;48.616;12.872;2023-09-19T03:45:20;15.90;99.90
7684;DHT22;3884;48.616;12.872;2023-09-19T03:47:50;15.80;99.90
7684;DHT22;3884;48.616;12.872;2023-09-19T03:50:20;16.00;99.90
7684;DHT22;3884;48.616;12.872;2023-09-19T03:52:48;15.90;99.90
7684;DHT22;3884;48.616;12.872;2023-09-19T03:55:15;15.80;99.90
7684;DHT22;3884;48.616;12.872;2023-09-19T03:57:42;16.00;99.90
7684;DHT22;3884;48.616;12.872;2023-09-19T04:00:10;15.90;99.90
7684;DHT22;3884;48.616;12.872;2023-09-19T04:02:41;15.90;99.90
7684;DHT22;3884;48.616;12.872;2023-09-19T04:05:09;15.90;99.90
7684;DHT22;3884;48.616;12.872;2023-09-19T04:07:36;16.00;99.90
7684;DHT22;3884;48.616;12.872;2023-09-19T04:10:03;16.00;99.90
7684;DHT22;3884;48.616;12.872;2023-09-19T04:12:31;16.00;99.90
7684;DHT22;3884;48.616;12.872;2023-09-19T04:14:59;16.00;99.90
7684;DHT22;3884;48.616;12.872;2023-09-19T04:17:25;15.90;99.90
7684;DHT22;3884;48.616;12.872;2023-09-19T04:19:54;16.00;99.90
7684;DHT22;3884;48.616;12.872;2023-09-19T04:22:21;15.90;99.90
7684;DHT22;3884;48.616;12.872;2023-09-19T04:24:48;15.90;99.90
7684;DHT22;3884;48.616;12.872;2023-09-19T04:27:15;15.90;99.90
7684;DHT22;3884;48.616;12.872;2023-09-19T04:29:42;15.90;99.90
7684;DHT22;3884;48.616;12.872;2023-09-19T04:32:09;15.90;99.90
7684;DHT22;3884;48.616;12.872;2023-09-19T04:34:36;15.90;99.90
7684;DHT22;3884;48.616;12.872;2023-09-19T04:37:05;15.90;99.90
7684;DHT22;3884;48.616;12.872;2023-09-19T04:39:32;16.00;99.90
7684;DHT22;3884;48.616;12.872;2023-09-19T04:41:59;16.00;99.90
7684;DHT22;3884;48.616;12.872;2023-09-19T04:44:26;16.00;99.90
7684;DHT22;3884;48.616;12.872;2023-09-19T04:46:53;16.00;99.90
7684;DHT22;3884;48.616;12.872;2023-09-19T04:49:20;16.00;99.90
7684;DHT22;3884;48.616;12.872;2023-09-19T04:51:47;16.00;99.90
7684;DHT22;3884;48.616;12.872;2023-09-19T04:54:16;16.00;99.90
7684;DHT22;3884;48.616;12.872;2023-09-19T04:56:43;16.00;99.90
7684;DHT22;3884;48.616;12.872;2023-09-19T04:59:10;16.00;99.90
7684;DHT22;3884;48.616;12.872;2023-09-19T05:01:37;15.80;99.90
7684;DHT22;3884;48.616;12.872;2023-09-19T05:04:04;16.00;99.90
7684;DHT22;3884;48.616;12.872;2023-09-19T05:06:31;16.00;99.90
7684;DHT22;3884;48.616;12.872;2023-09-19T05:08:58;16.00;99.90
7684;DHT22;3884;48.616;12.872;2023-09-19T05:11:27;16.00;99.90
7684;DHT22;3884;48.616;12.872;2023-09-19T05:13:56;15.90;99.90
7684;DHT22;3884;48.616;12.872;2023-09-19T05:16:22;15.90;99.90
7684;DHT22;3884;48.616;12.872;2023-09-19T05:18:49;16.00;99.90
7684;DHT22;3884;48.616;12.872;2023-09-19T05:21:16;16.00;99.90
7684;DHT22;3884;48.616;12.872;2023-09-19T05:23:44;16.00;99.90
7684;DHT22;3884;48.616;12.872;2023-09-19T05:26:11;16.00;99.90
7684;DHT22;3884;48.616;12.872;2023-09-19T05:28:39;16.00;99.90
7684;DHT22;3884;48.616;12.872;2023-09-19T05:31:06;16.00;99.90
7684;DHT22;3884;48.616;12.872;2023-09-19T05:33:33;16.00;99.90
7684;DHT22;3884;48.616;12.872;2023-09-19T05:36:00;16.00;99.90
7684;DHT22;3884;48.616;12.872;2023-09-19T05:38:27;16.00;99.90
7684;DHT22;3884;48.616;12.872;2023-09-19T05:40:54;15.90;99.90
7684;DHT22;3884;48.616;12.872;2023-09-19T05:43:21;16.00;99.90
7684;DHT22;3884;48.616;12.872;2023-09-19T05:45:50;16.10;99.90
7684;DHT22;3884;48.616;12.872;2023-09-19T05:48:17;16.10;99.90
7684;DHT22;3884;48.616;12.872;2023-09-19T05:50:46;16.10;99.90
7684;DHT22;3884;48.616;12.872;2023-09-19T05:53:15;16.20;99.90
7684;DHT22;3884;48.616;12.872;2023-09-19T05:55:44;16.20;99.90
7684;DHT22;3884;48.616;12.872;2023-09-19T05:58:11;16.10;99.90
7684;DHT22;3884;48.616;12.872;2023-09-19T06:00:39;16.20;99.90
7684;DHT22;3884;48.616;12.872;2023-09-19T06:03:08;16.20;99.90
7684;DHT22;3884;48.616;12.872;2023-09-19T06:05:35;16.30;99.90
7684;DHT22;3884;48.616;12.872;2023-09-19T06:08:05;16.30;99.90
7684;DHT22;3884;48.616;12.872;2023-09-19T06:10:33;16.30;99.90
7684;DHT22;3884;48.616;12.872;2023-09-19T06:13:01;16.30;99.90
7684;DHT22;3884;48.616;12.872;2023-09-19T06:15:30;16.30;99.90
7684;DHT22;3884;48.616;12.872;2023-09-19T06:17:59;16.40;99.90
7684;DHT22;3884;48.616;12.872;2023-09-19T06:20:29;16.40;99.90
7684;DHT22;3884;48.616;12.872;2023-09-19T06:22:57;16.40;99.90
7684;DHT22;3884;48.616;12.872;2023-09-19T06:25:24;16.40;99.90
7684;DHT22;3884;48.616;12.872;2023-09-19T06:27:52;16.30;99.90
7684;DHT22;3884;48.616;12.872;2023-09-19T06:30:23;16.40;99.90
7684;DHT22;3884;48.616;12.872;2023-09-19T06:32:55;16.50;99.90
7684;DHT22;3884;48.616;12.872;2023-09-19T06:35:23;16.50;99.90
7684;DHT22;3884;48.616;12.872;2023-09-19T06:37:55;16.60;99.90
7684;DHT22;3884;48.616;12.872;2023-09-19T06:40:23;16.60;99.90
7684;DHT22;3884;48.616;12.872;2023-09-19T06:42:51;16.60;99.90
7684;DHT22;3884;48.616;12.872;2023-09-19T06:45:21;16.70;99.90
7684;DHT22;3884;48.616;12.872;2023-09-19T06:47:49;16.80;99.90
7684;DHT22;3884;48.616;12.872;2023-09-19T06:50:16;16.90;99.90
7684;DHT22;3884;48.616;12.872;2023-09-19T06:52:46;16.90;99.90
7684;DHT22;3884;48.616;12.872;2023-09-19T06:55:17;17.00;99.90
7684;DHT22;3884;48.616;12.872;2023-09-19T06:57:45;17.10;99.90
7684;DHT22;3884;48.616;12.872;2023-09-19T07:00:13;17.20;99.90
7684;DHT22;3884;48.616;12.872;2023-09-19T07:02:55;17.20;99.90
7684;DHT22;3884;48.616;12.872;2023-09-19T07:05:24;17.20;99.90
7684;DHT22;3884;48.616;12.872;2023-09-19T07:07:53;17.20;99.90
7684;DHT22;3884;48.616;12.872;2023-09-19T07:10:22;17.10;99.90
7684;DHT22;3884;48.616;12.872;2023-09-19T07:12:56;17.20;99.90
7684;DHT22;3884;48.616;12.872;2023-09-19T07:15:24;17.20;99.90
7684;DHT22;3884;48.616;12.872;2023-09-19T07:17:52;17.20;99.90
7684;DHT22;3884;48.616;12.872;2023-09-19T07:20:20;17.30;99.90
7684;DHT22;3884;48.616;12.872;2023-09-19T07:22:47;17.30;99.90
7684;DHT22;3884;48.616;12.872;2023-09-19T07:25:16;17.30;99.90
7684;DHT22;3884;48.616;12.872;2023-09-19T07:27:47;17.40;99.90
7684;DHT22;3884;48.616;12.872;2023-09-19T07:30:14;17.40;99.90
7684;DHT22;3884;48.616;12.872;2023-09-19T07:32:41;17.50;99.90
7684;DHT22;3884;48.616;12.872;2023-09-19T07:35:18;17.40;99.90
7684;DHT22;3884;48.616;12.872;2023-09-19T07:37:47;17.30;99.90
7684;DHT22;3884;48.616;12.872;2023-09-19T07:40:20;17.50;99.90
7684;DHT22;3884;48.616;12.872;2023-09-19T07:42:54;17.60;99.90
7684;DHT22;3884;48.616;12.872;2023-09-19T07:45:21;17.60;99.90
7684;DHT22;3884;48.616;12.872;2023-09-19T07:47:53;17.90;99.90
7684;DHT22;3884;48.616;12.872;2023-09-19T07:50:21;18.10;99.90
7684;DHT22;3884;48.616;12.872;2023-09-19T07:52:49;18.00;75.80
7684;DHT22;3884;48.616;12.872;2023-09-19T07:55:20;18.10;42.00
7684;DHT22;3884;48.616;12.872;2023-09-19T07:57:53;18.30;1.00
7684;DHT22;3884;48.616;12.872;2023-09-19T08:00:20;18.40;1.00
7684;DHT22;3884;48.616;12.872;2023-09-19T08:02:47;18.50;1.00
7684;DHT22;3884;48.616;12.872;2023-09-19T08:05:15;18.40;1.00
7684;DHT22;3884;48.616;12.872;2023-09-19T08:07:43;18.30;1.00
7684;DHT22;3884;48.616;12.872;2023-09-19T08:10:11;18.30;1.00
7684;DHT22;3884;48.616;12.872;2023-09-19T08:12:39;18.20;1.00
7684;DHT22;3884;48.616;12.872;2023-09-19T08:15:13;18.30;9.70
7684;DHT22;3884;48.616;12.872;2023-09-19T08:17:40;18.40;10.40
7684;DHT22;3884;48.616;12.872;2023-09-19T08:20:08;18.40;1.00
7684;DHT22;3884;48.616;12.872;2023-09-19T08:22:43;18.40;99.90
7684;DHT22;3884;48.616;12.872;2023-09-19T08:25:14;18.40;99.90
7684;DHT22;3884;48.616;12.872;2023-09-19T08:27:43;18.30;99.90
7684;DHT22;3884;48.616;12.872;2023-09-19T08:30:16;18.30;99.90
7684;DHT22;3884;48.616;12.872;2023-09-19T08:32:45;18.30;99.90
7684;DHT22;3884;48.616;12.872;2023-09-19T08:35:13;18.30;99.90
7684;DHT22;3884;48.616;12.872;2023-09-19T08:37:41;18.30;99.90
7684;DHT22;3884;48.616;12.872;2023-09-19T08:40:09;18.60;1.00
7684;DHT22;3884;48.616;12.872;2023-09-19T08:42:48;18.80;99.90
7684;DHT22;3884;48.616;12.872;2023-09-19T08:45:17;18.90;99.90
7684;DHT22;3884;48.616;12.872;2023-09-19T08:47:47;19.10;99.90
7684;DHT22;3884;48.616;12.872;2023-09-19T08:50:21;19.20;1.00
7684;DHT22;3884;48.616;12.872;2023-09-19T08:52:51;19.30;99.90
7684;DHT22;3884;48.616;12.872;2023-09-19T08:55:23;19.50;1.00
7684;DHT22;3884;48.616;12.872;2023-09-19T08:58:00;19.60;99.90
7684;DHT22;3884;48.616;12.872;2023-09-19T09:00:29;19.60;99.90
7684;DHT22;3884;48.616;12.872;2023-09-19T09:02:57;19.80;1.00
7684;DHT22;3884;48.616;12.872;2023-09-19T09:05:26;20.00;1.00
7684;DHT22;3884;48.616;12.872;2023-09-19T09:07:55;19.80;99.90
7684;DHT22;3884;48.616;12.872;2023-09-19T09:10:23;19.60;1.00
7684;DHT22;3884;48.616;12.872;2023-09-19T09:12:51;19.70;99.90
7684;DHT22;3884;48.616;12.872;2023-09-19T09:15:19;19.70;99.90
7684;DHT22;3884;48.616;12.872;2023-09-19T09:17:49;19.60;99.90
7684;DHT22;3884;48.616;12.872;2023-09-19T09:20:18;19.50;99.90
7684;DHT22;3884;48.616;12.872;2023-09-19T09:22:52;19.40;99.90
7684;DHT22;3884;48.616;12.872;2023-09-19T09:25:21;19.30;1.00
7684;DHT22;3884;48.616;12.872;2023-09-19T09:27:59;19.30;99.90
7684;DHT22;3884;48.616;12.872;2023-09-19T09:30:34;19.40;99.90
7684;DHT22;3884;48.616;12.872;2023-09-19T09:33:13;19.30;99.90
7684;DHT22;3884;48.616;12.872;2023-09-19T09:35:51;19.20;99.90
7684;DHT22;3884;48.616;12.872;2023-09-19T09:38:19;19.20;99.90
7684;DHT22;3884;48.616;12.872;2023-09-19T09:40:48;19.20;99.90
7684;DHT22;3884;48.616;12.872;2023-09-19T09:43:26;19.30;99.90
7684;DHT22;3884;48.616;12.872;2023-09-19T09:46:07;19.60;99.90
7684;DHT22;3884;48.616;12.872;2023-09-19T09:49:01;19.90;99.90
7684;DHT22;3884;48.616;12.872;2023-09-19T09:52:00;20.20;60.80
7684;DHT22;3884;48.616;12.872;2023-09-19T09:54:31;20.30;1.00
7684;DHT22;3884;48.616;12.872;2023-09-19T09:57:03;20.30;1.00
7684;DHT22;3884;48.616;12.872;2023-09-19T09:59:47;20.40;1.00
7684;DHT22;3884;48.616;12.872;2023-09-19T10:02:14;20.60;99.90
7684;DHT22;3884;48.616;12.872;2023-09-19T10:04:50;20.60;99.90
7684;DHT22;3884;48.616;12.872;2023-09-19T10:07:35;20.60;99.90
7684;DHT22;3884;48.616;12.872;2023-09-19T10:10:07;20.60;99.90
7684;DHT22;3884;48.616;12.872;2023-09-19T10:12:43;20.80;99.90
7684;DHT22;3884;48.616;12.872;2023-09-19T10:15:15;20.90;99.90
7684;DHT22;3884;48.616;12.872;2023-09-19T10:17:43;21.10;44.50
7684;DHT22;3884;48.616;12.872;2023-09-19T10:20:16;21.00;78.00
7684;DHT22;3884;48.616;12.872;2023-09-19T10:23:03;21.10;1.00
7684;DHT22;3884;48.616;12.872;2023-09-19T10:25:36;21.10;1.00
7684;DHT22;3884;48.616;12.872;2023-09-19T10:28:06;21.00;1.00
7684;DHT22;3884;48.616;12.872;2023-09-19T10:30:37;20.80;10.80
7684;DHT22;3884;48.616;12.872;2023-09-19T10:33:09;20.70;1.00
7684;DHT22;3884;48.616;12.872;2023-09-19T10:35:40;20.60;1.00
7684;DHT22;3884;48.616;12.872;2023-09-19T10:38:10;20.60;1.00
7684;DHT22;3884;48.616;12.872;2023-09-19T10:40:38;20.80;1.00
7684;DHT22;3884;48.616;12.872;2023-09-19T10:43:12;20.90;1.00
7684;DHT22;3884;48.616;12.872;2023-09-19T10:45:44;21.00;1.00
7684;DHT22;3884;48.616;12.872;2023-09-19T10:48:12;21.00;1.00
7684;DHT22;3884;48.616;12.872;2023-09-19T10:50:46;20.90;1.00
7684;DHT22;3884;48.616;12.872;2023-09-19T10:53:16;20.70;1.00
7684;DHT22;3884;48.616;12.872;2023-09-19T10:55:49;20.70;1.00
7684;DHT22;3884;48.616;12.872;2023-09-19T10:58:28;20.50;99.90
7684;DHT22;3884;48.616;12.872;2023-09-19T11:00:57;20.40;1.00
7684;DHT22;3884;48.616;12.872;2023-09-19T11:03:33;20.30;1.00
7684;DHT22;3884;48.616;12.872;2023-09-19T11:06:06;20.20;1.00
7684;DHT22;3884;48.616;12.872;2023-09-19T11:08:54;20.00;1.00
7684;DHT22;3884;48.616;12.872;2023-09-19T11:11:40;19.70;1.00
7684;DHT22;3884;48.616;12.872;2023-09-19T11:14:14;18.70;99.90
7684;DHT22;3884;48.616;12.872;2023-09-19T11:23:23;17.20;79.90
7684;DHT22;3884;48.616;12.872;2023-09-19T11:25:55;16.90;1.00
7684;DHT22;3884;48.616;12.872;2023-09-19T11:28:33;17.00;99.90
7684;DHT22;3884;48.616;12.872;2023-09-19T11:36:59;17.30;99.90
7684;DHT22;3884;48.616;12.872;2023-09-19T11:39:30;17.50;79.80
7684;DHT22;3884;48.616;12.872;2023-09-19T11:41:58;17.80;99.90
7684;DHT22;3884;48.616;12.872;2023-09-19T11:44:34;18.10;99.90
7684;DHT22;3884;48.616;12.872;2023-09-19T11:47:07;18.10;1.00
7684;DHT22;3884;48.616;12.872;2023-09-19T11:49:35;18.20;99.90
7684;DHT22;3884;48.616;12.872;2023-09-19T11:52:08;18.30;99.90
7684;DHT22;3884;48.616;12.872;2023-09-19T11:54:43;18.20;99.90
7684;DHT22;3884;48.616;12.872;2023-09-19T11:57:20;18.20;99.90
7684;DHT22;3884;48.616;12.872;2023-09-19T11:59:49;18.10;1.00
7684;DHT22;3884;48.616;12.872;2023-09-19T12:02:39;18.30;99.90
7684;DHT22;3884;48.616;12.872;2023-09-19T12:05:08;18.50;99.90
7684;DHT22;3884;48.616;12.872;2023-09-19T12:07:43;18.50;1.00
7684;DHT22;3884;48.616;12.872;2023-09-19T12:10:15;18.50;52.30
7684;DHT22;3884;48.616;12.872;2023-09-19T12:12:47;18.40;1.00
7684;DHT22;3884;48.616;12.872;2023-09-19T12:15:16;18.60;34.30
7684;DHT22;3884;48.616;12.872;2023-09-19T12:17:50;18.40;99.90
7684;DHT22;3884;48.616;12.872;2023-09-19T12:20:20;18.60;1.00
7684;DHT22;3884;48.616;12.872;2023-09-19T12:22:49;18.60;1.00
7684;DHT22;3884;48.616;12.872;2023-09-19T12:25:18;18.70;1.00
7684;DHT22;3884;48.616;12.872;2023-09-19T12:27:48;18.80;1.00
7684;DHT22;3884;48.616;12.872;2023-09-19T12:30:18;18.90;99.90
7684;DHT22;3884;48.616;12.872;2023-09-19T12:32:46;19.10;99.90
7684;DHT22;3884;48.616;12.872;2023-09-19T12:35:27;19.10;99.90
7684;DHT22;3884;48.616;12.872;2023-09-19T12:37:54;19.20;99.90
7684;DHT22;3884;48.616;12.872;2023-09-19T12:40:24;19.10;1.00
7684;DHT22;3884;48.616;12.872;2023-09-19T12:42:54;19.20;1.00
7684;DHT22;3884;48.616;12.872;2023-09-19T12:45:22;19.30;1.00
7684;DHT22;3884;48.616;12.872;2023-09-19T12:48:17;19.30;1.00
7684;DHT22;3884;48.616;12.872;2023-09-19T12:51:03;19.40;1.00
7684;DHT22;3884;48.616;12.872;2023-09-19T12:53:36;19.40;1.00
7684;DHT22;3884;48.616;12.872;2023-09-19T12:56:07;19.50;1.00
7684;DHT22;3884;48.616;12.872;2023-09-19T12:58:47;19.60;1.00
7684;DHT22;3884;48.616;12.872;2023-09-19T13:01:15;19.70;1.00
7684;DHT22;3884;48.616;12.872;2023-09-19T13:03:44;19.70;1.00
7684;DHT22;3884;48.616;12.872;2023-09-19T13:06:11;19.60;99.90
7684;DHT22;3884;48.616;12.872;2023-09-19T13:08:42;19.50;1.00
7684;DHT22;3884;48.616;12.872;2023-09-19T13:11:17;19.70;1.00
7684;DHT22;3884;48.616;12.872;2023-09-19T13:13:48;19.90;1.00
7684;DHT22;3884;48.616;12.872;2023-09-19T13:16:21;19.90;99.90
7684;DHT22;3884;48.616;12.872;2023-09-19T13:18:51;19.90;99.90
7684;DHT22;3884;48.616;12.872;2023-09-19T13:21:30;20.00;99.90
7684;DHT22;3884;48.616;12.872;2023-09-19T13:24:17;19.90;99.90
7684;DHT22;3884;48.616;12.872;2023-09-19T13:26:47;20.10;99.90
7684;DHT22;3884;48.616;12.872;2023-09-19T13:29:15;20.20;99.90
7684;DHT22;3884;48.616;12.872;2023-09-19T13:31:46;20.30;99.90
7684;DHT22;3884;48.616;12.872;2023-09-19T13:34:13;20.50;99.90
7684;DHT22;3884;48.616;12.872;2023-09-19T13:36:41;20.60;99.90
7684;DHT22;3884;48.616;12.872;2023-09-19T13:39:09;20.60;99.90
7684;DHT22;3884;48.616;12.872;2023-09-19T13:41:38;20.70;99.90
7684;DHT22;3884;48.616;12.872;2023-09-19T13:44:07;20.80;99.90
7684;DHT22;3884;48.616;12.872;2023-09-19T13:46:36;20.90;99.90
7684;DHT22;3884;48.616;12.872;2023-09-19T13:49:03;20.80;99.90
7684;DHT22;3884;48.616;12.872;2023-09-19T13:51:31;20.90;99.90
7684;DHT22;3884;48.616;12.872;2023-09-19T13:53:59;21.00;99.90
7684;DHT22;3884;48.616;12.872;2023-09-19T13:56:26;21.00;99.90
7684;DHT22;3884;48.616;12.872;2023-09-19T13:58:53;21.20;99.90
7684;DHT22;3884;48.616;12.872;2023-09-19T14:01:22;21.30;99.90
7684;DHT22;3884;48.616;12.872;2023-09-19T14:03:49;21.40;99.90
7684;DHT22;3884;48.616;12.872;2023-09-19T14:06:17;21.60;99.90
7684;DHT22;3884;48.616;12.872;2023-09-19T14:08:44;21.40;99.90
7684;DHT22;3884;48.616;12.872;2023-09-19T14:11:13;21.30;99.90
7684;DHT22;3884;48.616;12.872;2023-09-19T14:13:42;21.40;99.90
7684;DHT22;3884;48.616;12.872;2023-09-19T14:16:12;21.40;99.90
7684;DHT22;3884;48.616;12.872;2023-09-19T14:18:41;21.40;99.90
7684;DHT22;3884;48.616;12.872;2023-09-19T14:21:07;21.50;99.90
7684;DHT22;3884;48.616;12.872;2023-09-19T14:23:36;21.50;99.90
7684;DHT22;3884;48.616;12.872;2023-09-19T14:26:04;21.70;99.90
7684;DHT22;3884;48.616;12.872;2023-09-19T14:28:32;21.80;99.90
7684;DHT22;3884;48.616;12.872;2023-09-19T14:31:04;21.90;99.90
7684;DHT22;3884;48.616;12.872;2023-09-19T14:33:32;22.10;99.90
7684;DHT22;3884;48.616;12.872;2023-09-19T14:36:04;22.30;99.90
7684;DHT22;3884;48.616;12.872;2023-09-19T14:38:33;22.10;99.90
7684;DHT22;3884;48.616;12.872;2023-09-19T14:41:01;22.20;99.90
7684;DHT22;3884;48.616;12.872;2023-09-19T14:43:28;22.10;99.90
7684;DHT22;3884;48.616;12.872;2023-09-19T14:45:55;22.00;99.90
7684;DHT22;3884;48.616;12.872;2023-09-19T14:48:24;21.90;99.90
7684;DHT22;3884;48.616;12.872;2023-09-19T14:50:51;21.70;99.90
7684;DHT22;3884;48.616;12.872;2023-09-19T14:53:20;21.80;99.90
7684;DHT22;3884;48.616;12.872;2023-09-19T14:55:47;22.00;99.90
7684;DHT22;3884;48.616;12.872;2023-09-19T14:58:17;22.20;99.90
7684;DHT22;3884;48.616;12.872;2023-09-19T15:00:45;22.40;99.90
7684;DHT22;3884;48.616;12.872;2023-09-19T15:03:12;22.60;99.90
7684;DHT22;3884;48.616;12.872;2023-09-19T15:05:39;22.80;99.90
7684;DHT22;3884;48.616;12.872;2023-09-19T15:08:06;22.80;99.90
7684;DHT22;3884;48.616;12.872;2023-09-19T15:10:35;22.90;99.90
7684;DHT22;3884;48.616;12.872;2023-09-19T15:13:02;22.70;99.90
7684;DHT22;3884;48.616;12.872;2023-09-19T15:15:31;22.80;99.90
7684;DHT22;3884;48.616;12.872;2023-09-19T15:17:58;22.70;99.90
7684;DHT22;3884;48.616;12.872;2023-09-19T15:20:25;22.70;99.90
7684;DHT22;3884;48.616;12.872;2023-09-19T15:22:52;22.70;99.90
7684;DHT22;3884;48.616;12.872;2023-09-19T15:25:19;22.60;99.90
7684;DHT22;3884;48.616;12.872;2023-09-19T15:27:48;22.50;99.90
7684;DHT22;3884;48.616;12.872;2023-09-19T15:30:15;22.60;99.90
7684;DHT22;3884;48.616;12.872;2023-09-19T15:32:42;22.80;99.90
7684;DHT22;3884;48.616;12.872;2023-09-19T15:35:09;22.70;99.90
7684;DHT22;3884;48.616;12.872;2023-09-19T15:37:38;22.60;99.90
7684;DHT22;3884;48.616;12.872;2023-09-19T15:40:06;22.80;99.90
7684;DHT22;3884;48.616;12.872;2023-09-19T15:42:36;22.80;99.90
7684;DHT22;3884;48.616;12.872;2023-09-19T15:45:06;22.80;99.90
7684;DHT22;3884;48.616;12.872;2023-09-19T15:47:35;23.00;99.90
7684;DHT22;3884;48.616;12.872;2023-09-19T15:50:11;23.10;99.90
7684;DHT22;3884;48.616;12.872;2023-09-19T15:53:18;23.20;99.90
7684;DHT22;3884;48.616;12.872;2023-09-19T15:56:03;23.30;99.90
7684;DHT22;3884;48.616;12.872;2023-09-19T15:58:32;23.40;99.90
7684;DHT22;3884;48.616;12.872;2023-09-19T16:01:06;23.70;99.90
7684;DHT22;3884;48.616;12.872;2023-09-19T16:03:34;24.00;99.90
7684;DHT22;3884;48.616;12.872;2023-09-19T16:06:07;24.10;99.90
7684;DHT22;3884;48.616;12.872;2023-09-19T16:08:35;24.20;99.90
7684;DHT22;3884;48.616;12.872;2023-09-19T16:11:03;24.00;99.90
7684;DHT22;3884;48.616;12.872;2023-09-19T16:13:30;24.00;99.90
7684;DHT22;3884;48.616;12.872;2023-09-19T16:15:57;24.00;99.90
7684;DHT22;3884;48.616;12.872;2023-09-19T16:18:26;24.00;99.90
7684;DHT22;3884;48.616;12.872;2023-09-19T16:20:53;23.80;99.90
7684;DHT22;3884;48.616;12.872;2023-09-19T16:23:20;23.70;99.90